createdAt,value
2018-05-15T00:01:05.387Z,19.53
2018-05-15T00:03:36.711Z,19.40
2018-05-15T00:06:08.073Z,19.44
2018-05-15T00:08:37.880Z,19.32
2018-05-15T00:11:07.846Z,19.33
2018-05-15T00:13:39.806Z,19.18
2018-05-15T00:16:11.363Z,19.19
2018-05-15T00:18:42.757Z,19.13
2018-05-15T00:21:12.848Z,19.00
2018-05-15T00:23:42.558Z,19.03
2018-05-15T00:26:12.240Z,19.01
2018-05-15T00:28:45.254Z,18.83
2018-05-15T00:31:16.307Z,18.84
2018-05-15T00:33:46.301Z,18.76
2018-05-15T00:36:16.315Z,18.66
2018-05-15T00:38:46.329Z,18.53
2018-05-15T00:41:17.853Z,18.41
2018-05-15T00:43:49.432Z,18.39
2018-05-15T00:46:20.897Z,18.36
2018-05-15T00:48:50.819Z,18.38
2018-05-15T00:51:22.233Z,18.39
2018-05-15T00:53:53.668Z,18.37
2018-05-15T00:56:23.628Z,18.36
2018-05-15T00:58:55.368Z,18.30
2018-05-15T01:01:26.737Z,18.29
2018-05-15T01:03:57.792Z,18.29
2018-05-15T01:06:28.586Z,18.27
2018-05-15T01:08:59.574Z,18.26
2018-05-15T01:11:30.674Z,18.23
2018-05-15T01:14:02.773Z,18.14
2018-05-15T01:16:32.691Z,18.15
2018-05-15T01:19:04.174Z,18.08
2018-05-15T01:21:35.773Z,17.98
2018-05-15T01:24:07.222Z,17.92
2018-05-15T01:26:37.138Z,17.94
2018-05-15T01:29:08.575Z,17.88
2018-05-15T01:31:40.063Z,17.76
2018-05-15T01:34:11.692Z,17.70
2018-05-15T01:36:43.347Z,17.67
2018-05-15T01:39:13.288Z,17.66
2018-05-15T01:41:44.730Z,17.58
2018-05-15T01:44:16.293Z,17.59
2018-05-15T01:46:48.394Z,17.57
2018-05-15T01:49:18.668Z,17.48
2018-05-15T01:51:50.133Z,17.47
2018-05-15T01:54:21.050Z,17.38
2018-05-15T01:56:52.692Z,17.38
2018-05-15T01:59:24.143Z,17.25
2018-05-15T02:01:54.567Z,17.27
2018-05-15T02:04:26.643Z,17.25
2018-05-15T02:06:58.283Z,17.25
2018-05-15T02:09:28.259Z,17.26
2018-05-15T02:11:59.656Z,17.25
2018-05-15T02:14:31.192Z,17.23
2018-05-15T02:17:02.771Z,17.27
2018-05-15T02:19:34.112Z,17.25
2018-05-15T02:22:04.548Z,17.21
2018-05-15T02:24:35.313Z,17.14
2018-05-15T02:27:06.240Z,17.06
2018-05-15T02:29:36.868Z,17.09
2018-05-15T02:32:07.019Z,17.05
2018-05-15T02:34:37.355Z,17.03
2018-05-15T02:37:09.046Z,17.01
2018-05-15T02:39:40.417Z,17.00
2018-05-15T02:42:11.975Z,16.93
2018-05-15T02:44:42.391Z,16.88
2018-05-15T02:47:14.560Z,16.87
2018-05-15T02:49:46.019Z,16.83
2018-05-15T02:52:17.562Z,16.78
2018-05-15T02:54:49.015Z,16.75
2018-05-15T02:57:19.749Z,16.67
2018-05-15T02:59:51.859Z,16.66
2018-05-15T03:02:23.207Z,16.58
2018-05-15T03:04:53.839Z,16.58
2018-05-15T03:07:23.832Z,16.59
2018-05-15T03:09:55.207Z,16.57
2018-05-15T03:12:25.156Z,16.58
2018-05-15T03:14:55.507Z,16.47
2018-05-15T03:17:27.062Z,16.49
2018-05-15T03:19:56.457Z,16.41
2018-05-15T03:22:26.803Z,16.38
2018-05-15T03:24:58.763Z,16.33
2018-05-15T03:27:30.313Z,16.30
2018-05-15T03:30:01.864Z,16.21
2018-05-15T03:32:31.860Z,16.24
2018-05-15T03:35:01.980Z,16.17
2018-05-15T03:37:32.853Z,16.18
2018-05-15T03:40:04.407Z,16.10
2018-05-15T03:42:35.837Z,16.00
2018-05-15T03:45:07.487Z,15.97
2018-05-15T03:47:39.012Z,15.86
2018-05-15T03:50:10.418Z,15.93
2018-05-15T03:52:41.835Z,15.76
2018-05-15T03:55:12.486Z,15.86
2018-05-15T03:57:42.693Z,15.93
2018-05-15T04:00:52.620Z,16.02
2018-05-15T04:04:16.010Z,16.09
2018-05-15T04:07:23.374Z,16.22
2018-05-15T04:09:54.939Z,16.42
2018-05-15T04:12:24.952Z,16.58
2018-05-15T04:14:56.623Z,16.84
2018-05-15T04:17:28.504Z,16.93
2018-05-15T04:20:00.320Z,17.15
2018-05-15T04:22:30.349Z,17.41
2018-05-15T04:25:01.873Z,17.74
2018-05-15T04:27:33.840Z,17.98
2018-05-15T04:30:03.481Z,18.16
2018-05-15T04:32:33.391Z,18.40
2018-05-15T04:35:03.457Z,18.68
2018-05-15T04:37:34.546Z,18.89
2018-05-15T04:40:06.019Z,19.10
2018-05-15T04:42:37.320Z,19.24
2018-05-15T04:45:09.223Z,19.49
2018-05-15T04:47:39.149Z,19.71
2018-05-15T04:50:10.673Z,19.94
2018-05-15T04:52:42.146Z,20.46
2018-05-15T04:55:13.279Z,20.48
2018-05-15T04:57:44.331Z,20.59
2018-05-15T05:00:15.876Z,20.88
2018-05-15T05:02:45.214Z,21.16
2018-05-15T05:05:16.686Z,21.48
2018-05-15T05:07:46.682Z,21.51
2018-05-15T05:10:17.304Z,21.72
2018-05-15T05:12:48.822Z,21.99
2018-05-15T05:15:20.353Z,22.51
2018-05-15T05:17:50.264Z,22.33
2018-05-15T05:20:20.208Z,22.89
2018-05-15T05:22:51.739Z,22.70
2018-05-15T05:25:21.646Z,22.57
2018-05-15T05:27:53.180Z,22.94
2018-05-15T05:30:24.520Z,23.25
2018-05-15T05:32:56.000Z,23.79
2018-05-15T05:35:26.037Z,23.88
2018-05-15T05:37:56.056Z,23.70
2018-05-15T05:40:27.199Z,23.78
2018-05-15T05:42:58.201Z,23.81
2018-05-15T05:45:29.536Z,24.00
2018-05-15T05:48:00.876Z,24.13
2018-05-15T05:50:32.104Z,23.91
2018-05-15T05:53:03.696Z,24.53
2018-05-15T05:55:35.064Z,24.90
2018-05-15T05:58:04.608Z,24.73
2018-05-15T06:00:35.511Z,25.43
2018-05-15T06:03:06.819Z,25.73
2018-05-15T06:05:37.957Z,26.06
2018-05-15T06:08:09.031Z,25.69
2018-05-15T06:10:40.389Z,25.40
2018-05-15T06:13:11.855Z,25.83
2018-05-15T06:15:43.337Z,26.36
2018-05-15T06:18:15.075Z,25.66
2018-05-15T06:20:46.837Z,25.93
2018-05-15T06:23:18.266Z,25.91
2018-05-15T06:25:48.171Z,26.97
2018-05-15T06:28:18.009Z,26.54
2018-05-15T06:30:49.701Z,26.74
2018-05-15T06:33:20.542Z,27.20
2018-05-15T06:35:50.504Z,26.61
2018-05-15T06:38:20.505Z,26.82
2018-05-15T06:40:51.472Z,26.67
2018-05-15T06:43:22.361Z,26.82
2018-05-15T06:45:53.847Z,27.13
2018-05-15T06:48:25.257Z,26.45
2018-05-15T06:50:55.787Z,26.88
2018-05-15T06:53:26.362Z,27.74
2018-05-15T06:55:57.511Z,27.87
2018-05-15T06:58:26.974Z,27.04
2018-05-15T07:00:58.303Z,26.74
2018-05-15T07:03:29.667Z,27.89
2018-05-15T07:05:58.720Z,27.77
2018-05-15T07:08:27.816Z,27.14
2018-05-15T07:10:57.701Z,27.92
2018-05-15T07:13:29.256Z,27.37
2018-05-15T07:16:01.016Z,27.44
2018-05-15T07:18:30.842Z,28.20
2018-05-15T07:21:00.744Z,28.40
2018-05-15T07:23:30.149Z,28.44
2018-05-15T07:26:01.494Z,28.59
2018-05-15T07:28:32.902Z,28.29
2018-05-15T07:31:04.503Z,29.00
2018-05-15T07:33:35.799Z,28.39
2018-05-15T07:36:07.165Z,29.04
2018-05-15T07:38:38.885Z,29.25
2018-05-15T07:41:10.439Z,29.62
2018-05-15T07:43:41.829Z,29.22
2018-05-15T07:46:13.172Z,29.63
2018-05-15T07:48:44.493Z,29.48
2018-05-15T07:51:15.785Z,29.88
2018-05-15T07:53:45.949Z,29.40
2018-05-15T07:56:17.153Z,27.43
2018-05-15T07:58:47.060Z,29.43
2018-05-15T08:01:16.667Z,29.43
2018-05-15T08:03:46.696Z,29.06
2018-05-15T08:06:17.337Z,29.80
2018-05-15T08:08:47.281Z,29.82
2018-05-15T08:11:18.888Z,30.17
2018-05-15T08:13:50.197Z,29.74
2018-05-15T08:16:20.049Z,28.74
2018-05-15T08:18:50.674Z,29.54
2018-05-15T08:21:21.998Z,30.08
2018-05-15T08:23:53.091Z,30.17
2018-05-15T08:26:23.595Z,29.57
2018-05-15T08:28:55.053Z,29.48
2018-05-15T08:31:25.384Z,29.36
2018-05-15T08:33:56.754Z,28.87
2018-05-15T08:36:27.163Z,29.07
2018-05-15T08:38:59.747Z,28.88
2018-05-15T08:41:31.730Z,28.13
2018-05-15T08:44:02.900Z,28.83
2018-05-15T08:46:33.790Z,28.51
2018-05-15T08:49:05.222Z,28.78
2018-05-15T08:51:35.855Z,28.42
2018-05-15T08:54:05.584Z,29.04
2018-05-15T08:56:35.925Z,27.59
2018-05-15T08:59:07.155Z,28.77
2018-05-15T09:01:38.356Z,29.63
2018-05-15T09:04:08.731Z,29.81
2018-05-15T09:06:38.533Z,30.07
2018-05-15T09:09:10.065Z,30.04
2018-05-15T09:11:41.618Z,28.80
2018-05-15T09:14:13.879Z,28.93
2018-05-15T09:16:45.720Z,29.42
2018-05-15T09:19:16.902Z,29.86
2018-05-15T09:21:48.299Z,28.13
2018-05-15T09:24:18.176Z,28.37
2018-05-15T09:26:50.140Z,29.79
2018-05-15T09:29:20.069Z,29.76
2018-05-15T09:31:50.490Z,29.69
2018-05-15T09:34:21.887Z,29.36
2018-05-15T09:36:53.169Z,29.71
2018-05-15T09:39:24.605Z,29.11
2018-05-15T09:41:56.188Z,29.10
2018-05-15T09:44:27.630Z,28.90
2018-05-15T09:46:58.999Z,28.78
2018-05-15T09:49:30.259Z,29.32
2018-05-15T09:52:01.917Z,29.36
2018-05-15T09:54:32.935Z,29.71
2018-05-15T09:57:05.384Z,29.63
2018-05-15T09:59:36.280Z,29.58
2018-05-15T10:02:07.158Z,29.25
2018-05-15T10:04:37.571Z,29.10
2018-05-15T10:07:07.401Z,28.62
2018-05-15T10:09:39.250Z,28.23
2018-05-15T10:12:09.172Z,28.33
2018-05-15T10:14:40.491Z,28.28
2018-05-15T10:17:11.659Z,28.40
2018-05-15T10:19:41.492Z,28.46
2018-05-15T10:22:12.888Z,28.32
2018-05-15T10:24:45.302Z,27.80
2018-05-15T10:27:16.698Z,27.84
2018-05-15T10:29:47.807Z,28.41
2018-05-15T10:32:17.686Z,27.70
2018-05-15T10:34:49.024Z,28.31
2018-05-15T10:37:20.114Z,27.68
2018-05-15T10:39:50.575Z,27.96
2018-05-15T10:42:20.157Z,28.10
2018-05-15T10:44:51.586Z,28.05
2018-05-15T10:47:22.630Z,28.78
2018-05-15T10:49:53.477Z,27.90
2018-05-15T10:52:23.667Z,28.95
2018-05-15T10:54:54.198Z,28.46
2018-05-15T10:57:25.563Z,28.87
2018-05-15T10:59:56.614Z,28.56
2018-05-15T11:02:28.173Z,29.04
2018-05-15T11:04:59.557Z,28.96
2018-05-15T11:07:29.854Z,27.58
2018-05-15T11:09:59.861Z,27.88
2018-05-15T11:12:29.754Z,28.75
2018-05-15T11:15:01.175Z,28.43
2018-05-15T11:17:32.573Z,27.73
2018-05-15T11:20:40.260Z,28.40
2018-05-15T11:23:48.857Z,27.99
2018-05-15T11:26:18.744Z,28.36
2018-05-15T11:28:48.633Z,28.50
2018-05-15T11:31:20.157Z,27.36
2018-05-15T11:33:52.040Z,28.40
2018-05-15T11:36:21.946Z,28.32
2018-05-15T11:38:53.183Z,28.05
2018-05-15T11:41:23.138Z,27.04
2018-05-15T11:43:54.732Z,26.85
2018-05-15T11:46:25.204Z,27.88
2018-05-15T11:48:55.609Z,27.53
2018-05-15T11:51:26.062Z,27.88
2018-05-15T11:53:54.803Z,28.19
2018-05-15T11:56:26.196Z,27.43
2018-05-15T11:58:56.033Z,27.87
2018-05-15T12:01:27.414Z,27.65
2018-05-15T12:03:58.559Z,27.45
2018-05-15T12:06:28.363Z,26.72
2018-05-15T12:09:00.016Z,27.56
2018-05-15T12:11:31.260Z,25.34
2018-05-15T12:14:01.666Z,27.02
2018-05-15T12:16:33.089Z,26.92
2018-05-15T12:19:03.535Z,27.26
2018-05-15T12:21:32.654Z,27.38
2018-05-15T12:24:02.529Z,27.55
2018-05-15T12:26:33.834Z,27.37
2018-05-15T12:29:03.681Z,26.84
2018-05-15T12:31:33.553Z,26.23
2018-05-15T12:34:05.312Z,26.28
2018-05-15T12:36:35.210Z,26.74
2018-05-15T12:39:05.633Z,27.79
2018-05-15T12:41:36.611Z,27.52
2018-05-15T12:44:08.030Z,27.66
2018-05-15T12:46:38.880Z,27.35
2018-05-15T12:49:09.230Z,27.82
2018-05-15T12:51:39.802Z,27.41
2018-05-15T12:54:09.882Z,26.81
2018-05-15T12:56:39.375Z,27.97
2018-05-15T12:59:08.477Z,27.56
2018-05-15T13:01:39.846Z,27.42
2018-05-15T13:04:09.819Z,27.67
2018-05-15T13:06:39.634Z,27.77
2018-05-15T13:09:11.013Z,28.11
2018-05-15T13:11:42.454Z,27.10
2018-05-15T13:14:13.289Z,27.86
2018-05-15T13:16:43.146Z,27.20
2018-05-15T13:19:14.658Z,27.50
2018-05-15T13:21:45.178Z,26.86
2018-05-15T13:24:16.726Z,26.94
2018-05-15T13:26:47.764Z,26.65
2018-05-15T13:29:18.093Z,27.13
2018-05-15T13:31:47.916Z,26.42
2018-05-15T13:34:19.673Z,26.97
2018-05-15T13:36:50.189Z,26.29
2018-05-15T13:39:21.457Z,27.24
2018-05-15T13:41:51.029Z,27.42
2018-05-15T13:44:20.071Z,27.43
2018-05-15T13:46:49.442Z,27.55
2018-05-15T13:49:20.760Z,27.73
2018-05-15T13:51:50.601Z,27.69
2018-05-15T13:54:21.365Z,27.78
2018-05-15T13:56:53.288Z,27.03
2018-05-15T13:59:24.669Z,27.21
2018-05-15T14:01:56.005Z,27.14
2018-05-15T14:04:26.800Z,26.96
2018-05-15T14:06:57.991Z,27.13
2018-05-15T14:09:27.817Z,27.12
2018-05-15T14:12:00.234Z,27.22
2018-05-15T14:14:31.397Z,27.01
2018-05-15T14:17:01.204Z,26.61
2018-05-15T14:19:32.688Z,26.55
2018-05-15T14:22:02.361Z,26.67
2018-05-15T14:24:32.227Z,26.98
2018-05-15T14:27:03.122Z,26.91
2018-05-15T14:29:33.168Z,26.70
2018-05-15T14:32:02.360Z,26.68
2018-05-15T14:34:34.132Z,26.67
2018-05-15T14:37:05.513Z,26.70
2018-05-15T14:39:36.349Z,26.90
2018-05-15T14:42:42.252Z,26.94
2018-05-15T14:45:16.573Z,26.75
2018-05-15T14:47:45.629Z,26.81
2018-05-15T14:50:14.895Z,26.94
2018-05-15T14:52:45.206Z,26.69
2018-05-15T14:55:16.584Z,26.57
2018-05-15T14:57:47.176Z,27.04
2018-05-15T15:00:17.033Z,26.85
2018-05-15T15:02:46.931Z,26.98
2018-05-15T15:05:17.110Z,26.87
2018-05-15T15:07:47.264Z,26.77
2018-05-15T15:10:17.300Z,26.53
2018-05-15T15:12:48.710Z,26.35
2018-05-15T15:15:20.131Z,26.18
2018-05-15T15:17:51.555Z,25.89
2018-05-15T15:20:22.113Z,25.81
2018-05-15T15:22:52.116Z,25.85
2018-05-15T15:25:22.263Z,26.05
2018-05-15T15:27:52.831Z,26.38
2018-05-15T15:30:24.180Z,26.38
2018-05-15T15:32:55.639Z,26.83
2018-05-15T15:35:26.562Z,26.47
2018-05-15T15:37:56.246Z,26.65
2018-05-15T15:40:25.408Z,26.46
2018-05-15T15:42:55.329Z,26.39
2018-05-15T15:45:25.171Z,26.33
2018-05-15T15:47:56.451Z,26.17
2018-05-15T15:50:27.380Z,25.95
2018-05-15T15:52:58.666Z,26.20
2018-05-15T15:55:29.182Z,26.15
2018-05-15T15:58:00.676Z,25.86
2018-05-15T16:00:29.476Z,25.69
2018-05-15T16:03:00.949Z,25.81
2018-05-15T16:05:31.715Z,25.93
2018-05-15T16:08:03.188Z,26.12
2018-05-15T16:10:32.578Z,26.16
2018-05-15T16:13:03.877Z,26.42
2018-05-15T16:15:33.677Z,26.40
2018-05-15T16:18:04.945Z,26.13
2018-05-15T16:20:34.898Z,26.02
2018-05-15T16:23:05.492Z,26.19
2018-05-15T16:25:36.387Z,26.04
2018-05-15T16:28:06.277Z,26.07
2018-05-15T16:30:35.565Z,25.53
2018-05-15T16:33:05.402Z,26.15
2018-05-15T16:35:35.368Z,26.15
2018-05-15T16:38:05.406Z,26.02
2018-05-15T16:40:34.481Z,26.05
2018-05-15T16:43:04.906Z,26.12
2018-05-15T16:45:35.220Z,25.95
2018-05-15T16:48:05.872Z,25.89
2018-05-15T16:50:35.727Z,25.31
2018-05-15T16:53:05.663Z,25.06
2018-05-15T16:55:35.701Z,25.02
2018-05-15T16:58:05.574Z,24.97
2018-05-15T17:00:37.005Z,25.02
2018-05-15T17:03:06.958Z,24.72
2018-05-15T17:05:36.882Z,24.64
2018-05-15T17:08:06.985Z,24.42
2018-05-15T17:10:38.575Z,24.46
2018-05-15T17:13:08.719Z,24.55
2018-05-15T17:15:39.934Z,24.36
2018-05-15T17:18:14.423Z,24.39
2018-05-15T17:20:47.623Z,24.30
2018-05-15T17:23:19.393Z,24.29
2018-05-15T17:25:48.601Z,24.37
2018-05-15T17:28:18.678Z,24.24
2018-05-15T17:30:48.541Z,24.27
2018-05-15T17:33:20.081Z,24.04
2018-05-15T17:35:50.633Z,24.02
2018-05-15T17:38:20.586Z,24.27
2018-05-15T17:40:52.964Z,24.22
2018-05-15T17:43:22.797Z,24.07
2018-05-15T17:45:52.652Z,24.00
2018-05-15T17:48:23.994Z,23.84
2018-05-15T17:50:54.468Z,23.82
2018-05-15T17:53:24.878Z,23.59
2018-05-15T17:55:54.946Z,23.56
2018-05-15T17:58:24.116Z,23.43
2018-05-15T18:00:54.054Z,23.38
2018-05-15T18:03:24.537Z,23.45
2018-05-15T18:05:53.530Z,23.37
2018-05-15T18:08:26.637Z,23.24
2018-05-15T18:10:56.444Z,23.08
2018-05-15T18:13:27.851Z,23.27
2018-05-15T18:15:59.405Z,23.22
2018-05-15T18:18:30.270Z,23.14
2018-05-15T18:21:00.292Z,23.01
2018-05-15T18:23:30.570Z,22.97
2018-05-15T18:26:00.382Z,22.77
2018-05-15T18:28:30.831Z,22.85
2018-05-15T18:31:02.262Z,22.75
2018-05-15T18:33:32.195Z,22.66
2018-05-15T18:36:03.672Z,22.52
2018-05-15T18:38:35.227Z,22.46
2018-05-15T18:41:05.689Z,22.44
2018-05-15T18:43:35.502Z,22.28
2018-05-15T18:46:05.836Z,22.33
2018-05-15T18:48:35.896Z,22.20
2018-05-15T18:51:05.622Z,22.15
2018-05-15T18:53:36.379Z,21.95
2018-05-15T18:56:07.270Z,21.69
2018-05-15T18:58:36.504Z,21.77
2018-05-15T19:01:05.974Z,21.78
2018-05-15T19:03:37.307Z,21.63
2018-05-15T19:06:07.277Z,21.50
2018-05-15T19:08:39.047Z,21.40
2018-05-15T19:11:10.311Z,21.43
2018-05-15T19:13:41.758Z,21.28
2018-05-15T19:16:12.241Z,21.37
2018-05-15T19:18:42.139Z,21.32
2018-05-15T19:21:12.175Z,21.15
2018-05-15T19:23:42.220Z,21.08
2018-05-15T19:26:13.568Z,21.17
2018-05-15T19:28:44.876Z,20.98
2018-05-15T19:31:18.101Z,20.88
2018-05-15T19:33:54.773Z,20.85
2018-05-15T19:36:33.728Z,20.67
2018-05-15T19:39:08.705Z,20.58
2018-05-15T19:41:40.247Z,20.54
2018-05-15T19:44:10.207Z,20.46
2018-05-15T19:46:40.198Z,20.45
2018-05-15T19:49:10.450Z,20.33
2018-05-15T19:51:39.839Z,20.27
2018-05-15T19:54:09.827Z,20.16
2018-05-15T19:56:39.461Z,20.20
2018-05-15T19:59:10.901Z,20.25
2018-05-15T20:01:40.212Z,20.15
2018-05-15T20:04:11.930Z,20.04
2018-05-15T20:06:43.404Z,20.04
2018-05-15T20:09:13.334Z,19.95
2018-05-15T20:11:43.979Z,19.83
2018-05-15T20:14:15.388Z,19.78
2018-05-15T20:16:46.997Z,19.71
2018-05-15T20:19:18.219Z,19.76
2018-05-15T20:21:48.024Z,19.70
2018-05-15T20:24:17.943Z,19.71
2018-05-15T20:26:49.312Z,19.57
2018-05-15T20:29:19.450Z,19.54
2018-05-15T20:31:48.782Z,19.49
2018-05-15T20:34:18.626Z,19.47
2018-05-15T20:36:50.025Z,19.32
2018-05-15T20:39:22.443Z,19.31
2018-05-15T20:41:53.881Z,19.26
2018-05-15T20:44:23.902Z,19.12
2018-05-15T20:46:55.306Z,18.97
2018-05-15T20:49:26.724Z,18.96
2018-05-15T20:51:56.741Z,18.80
2018-05-15T20:54:26.645Z,18.73
2018-05-15T20:56:57.889Z,18.82
2018-05-15T20:59:27.905Z,18.72
2018-05-15T21:01:58.452Z,18.71
2018-05-15T21:04:29.845Z,18.65
2018-05-15T21:07:01.258Z,18.62
2018-05-15T21:09:32.652Z,18.50
2018-05-15T21:12:03.387Z,18.36
2018-05-15T21:14:33.325Z,18.43
2018-05-15T21:17:04.677Z,18.28
2018-05-15T21:19:34.602Z,18.28
2018-05-15T21:22:06.161Z,18.14
2018-05-15T21:24:37.078Z,18.16
2018-05-15T21:27:08.558Z,18.08
2018-05-15T21:29:39.944Z,17.94
2018-05-15T21:32:11.734Z,17.96
2018-05-15T21:34:43.198Z,17.98
2018-05-15T21:37:15.379Z,17.92
2018-05-15T21:39:46.836Z,17.84
2018-05-15T21:42:16.839Z,17.81
2018-05-15T21:44:46.767Z,17.75
2018-05-15T21:47:18.185Z,17.67
2018-05-15T21:49:48.025Z,17.44
2018-05-15T21:52:18.025Z,17.44
2018-05-15T21:54:48.030Z,17.65
2018-05-15T21:57:18.776Z,17.52
2018-05-15T21:59:49.164Z,17.39
2018-05-15T22:02:19.077Z,17.43
2018-05-15T22:04:50.578Z,17.24
2018-05-15T22:07:20.445Z,17.20
2018-05-15T22:09:52.130Z,17.27
2018-05-15T22:13:00.047Z,17.19
2018-05-15T22:16:06.748Z,17.17
2018-05-15T22:19:14.422Z,17.09
2018-05-15T22:22:18.145Z,17.13
2018-05-15T22:24:48.062Z,17.04
2018-05-15T22:27:18.036Z,16.98
2018-05-15T22:29:49.925Z,16.94
2018-05-15T22:32:21.617Z,16.76
2018-05-15T22:34:53.014Z,16.84
2018-05-15T22:37:22.916Z,16.86
2018-05-15T22:39:55.315Z,16.83
2018-05-15T22:42:25.246Z,16.71
2018-05-15T22:44:57.665Z,16.68
2018-05-15T22:47:31.102Z,16.66
2018-05-15T22:50:02.662Z,16.72
2018-05-15T22:52:35.032Z,16.58
2018-05-15T22:55:05.144Z,16.59
2018-05-15T22:57:35.203Z,16.47
2018-05-15T23:00:05.163Z,16.55
2018-05-15T23:02:36.924Z,16.40
2018-05-15T23:05:06.943Z,16.49
2018-05-15T23:07:38.811Z,16.47
2018-05-15T23:10:09.203Z,16.45
2018-05-15T23:12:41.157Z,16.26
2018-05-15T23:15:12.601Z,16.36
2018-05-15T23:17:41.997Z,16.30
2018-05-15T23:20:13.505Z,16.22
2018-05-15T23:22:46.288Z,16.17
2018-05-15T23:25:16.228Z,16.16
2018-05-15T23:27:46.231Z,16.07
2018-05-15T23:30:17.833Z,16.08
2018-05-15T23:32:49.850Z,16.07
2018-05-15T23:35:19.103Z,16.01
2018-05-15T23:37:50.539Z,16.06
2018-05-15T23:40:22.525Z,16.04
2018-05-15T23:42:54.417Z,15.99
2018-05-15T23:45:25.951Z,15.89
2018-05-15T23:47:57.732Z,15.82
2018-05-15T23:50:29.134Z,15.96
2018-05-15T23:52:58.634Z,15.68
2018-05-15T23:55:30.554Z,15.84
2018-05-15T23:58:00.860Z,15.71
